createdAt,value
2023-05-13T00:08:26.398Z,9.41
2023-05-13T00:18:26.243Z,9.87
2023-05-13T00:28:26.348Z,4.28
2023-05-13T00:38:26.260Z,5.30
2023-05-13T00:48:26.231Z,4.64
2023-05-13T00:58:26.244Z,7.14
2023-05-13T01:08:26.254Z,9.09
2023-05-13T01:18:26.387Z,5.38
2023-05-13T01:28:27.536Z,6.03
2023-05-13T01:38:28.551Z,6.31
2023-05-13T01:48:28.403Z,6.58
2023-05-13T01:58:28.604Z,6.12
2023-05-13T02:08:28.439Z,9.17
2023-05-13T02:18:28.514Z,7.49
2023-05-13T02:28:28.371Z,5.55
2023-05-13T02:38:28.689Z,4.92
2023-05-13T02:48:28.531Z,3.45
2023-05-13T02:58:28.994Z,3.92
2023-05-13T03:08:29.423Z,3.93
2023-05-13T03:18:31.438Z,3.27
2023-05-13T03:28:32.079Z,4.28
2023-05-13T03:38:33.012Z,3.53
2023-05-13T03:48:34.529Z,3.81
2023-05-13T03:58:34.743Z,6.50
2023-05-13T04:08:34.561Z,7.15
2023-05-13T04:18:35.402Z,3.72
2023-05-13T04:28:36.207Z,4.28
2023-05-13T04:38:37.344Z,3.26
2023-05-13T04:48:37.727Z,4.19
2023-05-13T04:58:37.819Z,7.19
2023-05-13T05:08:37.964Z,5.72
2023-05-13T05:18:39.730Z,6.69
2023-05-13T05:28:40.433Z,6.34
2023-05-13T05:38:44.382Z,4.66
2023-05-13T05:48:45.473Z,5.43
2023-05-13T05:58:46.080Z,2.59
2023-05-13T06:08:47.087Z,2.15
2023-05-13T06:18:47.728Z,2.16
2023-05-13T06:28:47.731Z,1.88
2023-05-13T06:38:47.931Z,2.48
2023-05-13T06:48:47.792Z,1.69
2023-05-13T06:58:47.827Z,3.10
2023-05-13T07:08:47.841Z,3.79
2023-05-13T07:18:47.775Z,1.50
2023-05-13T07:28:47.826Z,2.30
2023-05-13T07:38:47.820Z,0.80
2023-05-13T07:48:47.854Z,1.70
2023-05-13T07:58:48.853Z,3.10
2023-05-13T08:08:48.863Z,3.10
2023-05-13T08:18:48.910Z,1.40
2023-05-13T08:28:50.533Z,0.70
2023-05-13T08:38:50.949Z,0.90
2023-05-13T08:48:50.928Z,0.80
2023-05-13T08:58:50.946Z,1.30
2023-05-13T09:08:50.987Z,0.90
2023-05-13T09:18:51.148Z,1.50
2023-05-13T09:28:51.111Z,1.00
2023-05-13T09:38:51.298Z,1.00
2023-05-13T09:48:55.161Z,0.10
2023-05-13T09:58:55.160Z,2.20
2023-05-13T10:08:55.055Z,1.00
2023-05-13T10:18:55.172Z,1.70
2023-05-13T10:28:56.028Z,1.40
2023-05-13T10:38:56.196Z,2.10
2023-05-13T10:48:56.271Z,0.40
2023-05-13T10:58:56.132Z,1.90
2023-05-13T11:08:56.487Z,0.60
2023-05-13T11:18:56.335Z,1.80
2023-05-13T11:28:56.319Z,0.40
2023-05-13T11:38:56.195Z,1.80
2023-05-13T11:48:56.286Z,0.60
2023-05-13T11:58:56.310Z,1.30
2023-05-13T12:08:56.431Z,0.30
2023-05-13T12:18:56.667Z,0.90
2023-05-13T12:28:57.655Z,1.50
2023-05-13T12:38:59.797Z,1.10
2023-05-13T12:48:59.288Z,0.30
2023-05-13T12:58:59.340Z,1.60
2023-05-13T13:09:02.396Z,1.10
2023-05-13T13:19:02.372Z,0.70
2023-05-13T13:29:02.398Z,0.50
2023-05-13T13:39:02.406Z,0.40
2023-05-13T13:49:10.130Z,1.20
2023-05-13T13:59:04.513Z,1.30
2023-05-13T14:09:04.479Z,1.10
2023-05-13T14:19:04.682Z,1.20
2023-05-13T14:29:04.525Z,0.40
2023-05-13T14:39:04.473Z,2.10
2023-05-13T14:49:04.545Z,1.00
2023-05-13T14:59:04.502Z,0.30
2023-05-13T15:09:04.275Z,2.40
2023-05-13T15:19:04.544Z,1.00
2023-05-13T15:29:04.639Z,1.00
2023-05-13T15:39:04.613Z,2.28
2023-05-13T15:49:04.672Z,0.30
2023-05-13T15:59:04.645Z,1.77
2023-05-13T16:09:04.606Z,2.16
2023-05-13T16:19:04.730Z,0.88
2023-05-13T16:29:04.614Z,4.32
2023-05-13T16:39:05.117Z,1.96
2023-05-13T16:49:05.786Z,1.96
2023-05-13T16:59:08.742Z,1.87
2023-05-13T17:09:08.702Z,1.57
2023-05-13T17:19:08.738Z,1.18
2023-05-13T17:29:08.849Z,2.47
2023-05-13T17:39:08.838Z,1.49
2023-05-13T17:49:08.893Z,0.69
2023-05-13T17:59:08.792Z,2.18
2023-05-13T18:09:08.832Z,3.07
2023-05-13T18:19:08.826Z,2.96
2023-05-13T18:29:09.025Z,3.45
2023-05-13T18:39:10.602Z,2.76
2023-05-13T18:49:10.802Z,2.56
2023-05-13T18:59:10.836Z,3.93
2023-05-13T19:09:10.921Z,2.74
2023-05-13T19:19:11.009Z,3.62
2023-05-13T19:29:10.984Z,5.07
2023-05-13T19:39:11.026Z,3.60
2023-05-13T19:49:10.963Z,3.89
2023-05-13T19:59:11.036Z,3.59
2023-05-13T20:09:11.622Z,4.26
2023-05-13T20:19:12.120Z,4.35
2023-05-13T20:29:12.271Z,2.32
2023-05-13T20:39:12.153Z,3.76
2023-05-13T20:49:12.252Z,3.27
2023-05-13T20:59:12.062Z,3.56
2023-05-13T21:09:12.012Z,5.28
2023-05-13T21:19:12.204Z,4.99
2023-05-13T21:29:12.025Z,5.08
2023-05-13T21:39:12.042Z,2.49
2023-05-13T21:49:12.250Z,4.98
2023-05-13T21:59:13.063Z,5.35
2023-05-13T22:09:13.080Z,5.06
2023-05-13T22:19:13.228Z,5.72
2023-05-13T22:29:13.204Z,5.91
2023-05-13T22:39:13.931Z,5.91
2023-05-13T22:49:14.244Z,4.66
2023-05-13T22:59:14.187Z,6.18
2023-05-13T23:09:14.128Z,5.99
2023-05-13T23:19:14.240Z,5.03
2023-05-13T23:29:14.185Z,6.45
2023-05-13T23:39:14.248Z,5.68
2023-05-13T23:49:14.177Z,5.30
2023-05-13T23:59:14.323Z,7.75
